Time;durP1;ratioP1;P1;durP2;ratioP2;P2;SDS_P1;SDS_P2;PMS_P1;PMS_P2;Temp;Humidity;BMP_temperature;BMP_pressure;BME280_temperature;BME280_humidity;BME280_pressure;Samples;Min_cycle;Max_cycle;Signal;HPM_P1;HPM_P2
2021/05/09 00:01:20;;;;;;;2.08;0.80;;;13.70;88.10;;;;;;5074247;28;20070;-71
2021/05/09 00:03:47;;;;;;;3.00;1.00;;;13.70;88.20;;;;;;5073084;28;20037;-72
2021/05/09 00:06:14;;;;;;;1.90;0.80;;;13.70;88.20;;;;;;5072935;28;20044;-72
2021/05/09 00:08:41;;;;;;;2.33;1.10;;;13.70;88.20;;;;;;5072769;28;20042;-71
2021/05/09 00:11:08;;;;;;;2.38;0.93;;;13.70;88.20;;;;;;5072173;28;20480;-71
2021/05/09 00:13:35;;;;;;;2.55;0.98;;;13.70;88.20;;;;;;5072353;28;20048;-71
2021/05/09 00:16:02;;;;;;;2.95;1.02;;;13.70;88.30;;;;;;5071798;28;20044;-71
2021/05/09 00:18:29;;;;;;;2.03;1.13;;;13.60;88.10;;;;;;5071049;28;20104;-70
2021/05/09 00:20:56;;;;;;;2.38;1.00;;;13.70;88.20;;;;;;5071439;28;20036;-70
2021/05/09 00:23:23;;;;;;;1.92;1.00;;;13.70;88.10;;;;;;5068476;28;20068;-71
2021/05/09 00:25:50;;;;;;;1.73;1.00;;;13.70;88.20;;;;;;5069972;28;20050;-71
2021/05/09 00:28:17;;;;;;;2.08;1.05;;;13.70;88.20;;;;;;5073800;28;20067;-71
2021/05/09 00:30:44;;;;;;;0.90;0.50;;;13.60;88.30;;;;;;5072585;28;20392;-70
2021/05/09 00:33:11;;;;;;;2.28;0.90;;;13.50;88.30;;;;;;5072916;28;20036;-71
2021/05/09 00:35:37;;;;;;;9.27;1.20;;;13.50;88.40;;;;;;5077653;28;20118;-71
2021/05/09 00:38:03;;;;;;;2.08;1.05;;;13.50;88.40;;;;;;5071104;28;20052;-71
2021/05/09 00:40:30;;;;;;;2.67;1.40;;;13.50;88.40;;;;;;5070328;28;20036;-71
2021/05/09 00:42:57;;;;;;;3.67;1.30;;;13.60;88.40;;;;;;5071969;28;20041;-71
2021/05/09 00:45:23;;;;;;;2.22;0.90;;;13.60;88.20;;;;;;5072065;28;20040;-71
2021/05/09 00:47:51;;;;;;;2.50;0.90;;;13.60;88.10;;;;;;5054103;28;20045;-71
2021/05/09 00:50:19;;;;;;;2.63;0.82;;;13.60;88.30;;;;;;5070869;28;20053;-71
2021/05/09 00:52:47;;;;;;;1.77;0.80;;;13.50;88.30;;;;;;5070274;28;20052;-71
2021/05/09 00:55:15;;;;;;;2.28;1.10;;;13.50;88.50;;;;;;5070673;28;20415;-71
2021/05/09 00:57:44;;;;;;;2.30;1.17;;;13.40;88.50;;;;;;5053867;28;20068;-71
2021/05/09 01:00:12;;;;;;;1.85;0.95;;;13.40;88.60;;;;;;5070890;28;20061;-71
2021/05/09 01:02:42;;;;;;;2.28;1.20;;;13.40;88.60;;;;;;5071105;28;20467;-71
2021/05/09 01:05:13;;;;;;;2.00;1.02;;;13.40;88.50;;;;;;5071557;28;20041;-72
2021/05/09 01:07:41;;;;;;;2.10;1.02;;;13.40;88.60;;;;;;5070951;28;20063;-71
2021/05/09 01:10:12;;;;;;;1.42;0.70;;;13.30;88.60;;;;;;5053862;28;20036;-71
2021/05/09 01:12:39;;;;;;;1.65;0.73;;;13.30;88.80;;;;;;5070556;28;20060;-72
2021/05/09 01:15:07;;;;;;;2.05;0.70;;;13.20;88.90;;;;;;5071509;28;20496;-71
2021/05/09 01:17:34;;;;;;;1.73;0.90;;;13.20;89.00;;;;;;5070427;28;20135;-71
2021/05/09 01:20:22;;;;;;;1.55;0.52;;;13.10;89.10;;;;;;5076150;28;20495;-72
2021/05/09 01:22:49;;;;;;;1.40;0.70;;;13.00;89.20;;;;;;5074445;28;20056;-72
2021/05/09 01:25:16;;;;;;;1.17;0.50;;;12.90;89.40;;;;;;5054793;28;20032;-71
2021/05/09 01:27:43;;;;;;;0.88;0.50;;;12.90;89.50;;;;;;5053659;28;20047;-69
2021/05/09 01:30:12;;;;;;;1.38;0.63;;;12.90;89.60;;;;;;5070769;28;20045;-70
2021/05/09 01:32:40;;;;;;;1.90;0.70;;;12.80;89.60;;;;;;5053898;28;20051;-71
2021/05/09 01:35:08;;;;;;;1.38;0.60;;;12.70;89.70;;;;;;5069942;28;20052;-71
2021/05/09 01:37:35;;;;;;;1.33;0.50;;;12.70;89.70;;;;;;5073307;28;20065;-70
2021/05/09 01:40:04;;;;;;;1.23;0.50;;;12.60;89.80;;;;;;5076052;28;20041;-71
2021/05/09 01:42:30;;;;;;;2.53;0.70;;;12.50;89.90;;;;;;5074013;28;20111;-71
2021/05/09 01:44:58;;;;;;;1.02;0.50;;;12.50;90.00;;;;;;5074336;28;20045;-71
2021/05/09 01:47:26;;;;;;;1.05;0.47;;;12.40;90.00;;;;;;5074372;28;20078;-70
2021/05/09 01:49:54;;;;;;;1.55;0.63;;;12.30;90.00;;;;;;5057716;28;20044;-71
2021/05/09 01:52:22;;;;;;;1.13;0.60;;;12.30;90.10;;;;;;5075176;28;20040;-71
2021/05/09 01:54:50;;;;;;;0.98;0.50;;;12.20;90.10;;;;;;5074052;28;20040;-70
2021/05/09 01:57:17;;;;;;;1.42;0.63;;;12.10;90.20;;;;;;5073689;28;20066;-70
2021/05/09 01:59:49;;;;;;;1.77;0.95;;;12.10;90.20;;;;;;5057367;28;20056;-70
2021/05/09 02:02:15;;;;;;;2.75;0.50;;;12.10;90.20;;;;;;5074810;28;20048;-71
2021/05/09 02:04:50;;;;;;;1.23;0.60;;;12.00;90.20;;;;;;5057956;28;20450;-70
2021/05/09 02:07:20;;;;;;;1.20;0.47;;;12.00;90.20;;;;;;5074292;28;20068;-70
2021/05/09 02:09:49;;;;;;;1.23;0.50;;;11.90;90.20;;;;;;5067514;28;20048;-71
2021/05/09 02:12:17;;;;;;;1.80;0.73;;;11.90;90.30;;;;;;5081331;28;20044;-71
2021/05/09 02:14:54;;;;;;;1.30;0.70;;;11.80;90.30;;;;;;5072887;28;20828;-71
2021/05/09 02:17:22;;;;;;;1.90;0.60;;;11.80;90.30;;;;;;5073714;28;20079;-70
2021/05/09 02:20:05;;;;;;;1.05;0.40;;;11.80;90.30;;;;;;5057797;28;20052;-70
2021/05/09 02:22:33;;;;;;;1.60;0.70;;;11.70;90.40;;;;;;5073425;28;20044;-70
2021/05/09 02:25:00;;;;;;;2.25;0.60;;;11.60;90.40;;;;;;5073997;28;20082;-71
2021/05/09 02:27:27;;;;;;;2.08;0.65;;;11.60;90.40;;;;;;5062784;28;20146;-71
2021/05/09 02:29:53;;;;;;;1.20;0.50;;;11.60;90.50;;;;;;5071397;28;20044;-70
2021/05/09 02:32:20;;;;;;;1.75;0.85;;;11.50;90.50;;;;;;5074038;28;20048;-70
2021/05/09 02:34:47;;;;;;;1.85;0.77;;;11.50;90.50;;;;;;5072833;28;20044;-70
2021/05/09 02:37:15;;;;;;;1.75;0.60;;;11.40;90.50;;;;;;5073696;28;20041;-71
2021/05/09 02:39:42;;;;;;;2.03;0.63;;;11.40;90.50;;;;;;5072489;28;20048;-70
2021/05/09 02:42:09;;;;;;;2.08;0.70;;;11.40;90.60;;;;;;5071623;28;20037;-71
2021/05/09 02:44:36;;;;;;;1.95;0.80;;;11.30;90.50;;;;;;5073725;28;20036;-71
2021/05/09 02:47:02;;;;;;;3.72;0.95;;;11.30;90.50;;;;;;5055376;28;20131;-71
2021/05/09 02:49:30;;;;;;;2.55;1.23;;;11.30;90.60;;;;;;5071403;28;20085;-70
2021/05/09 02:52:00;;;;;;;2.10;0.60;;;11.30;90.60;;;;;;5056430;28;20048;-70
2021/05/09 02:54:29;;;;;;;1.95;0.80;;;11.20;90.60;;;;;;5074063;28;20039;-70
2021/05/09 02:56:56;;;;;;;2.28;0.90;;;11.20;90.60;;;;;;5072956;28;20155;-71
2021/05/09 02:59:22;;;;;;;1.20;0.60;;;11.20;90.60;;;;;;5073202;28;20051;-71
2021/05/09 03:01:53;;;;;;;1.48;0.90;;;11.10;90.70;;;;;;5072652;28;20046;-71
2021/05/09 03:04:20;;;;;;;1.70;0.85;;;11.10;90.70;;;;;;5072626;28;20135;-71
2021/05/09 03:06:47;;;;;;;1.70;0.65;;;11.10;90.70;;;;;;5072195;28;20510;-71
2021/05/09 03:09:14;;;;;;;1.65;0.52;;;11.10;90.70;;;;;;5072468;28;20131;-70
2021/05/09 03:11:42;;;;;;;1.40;0.63;;;11.00;90.70;;;;;;5072164;28;20036;-70
2021/05/09 03:14:09;;;;;;;1.60;0.70;;;11.00;91.00;;;;;;5039194;28;20037;-71
2021/05/09 03:16:35;;;;;;;1.38;0.75;;;11.00;90.70;;;;;;5073126;28;20040;-71
2021/05/09 03:19:02;;;;;;;1.75;0.80;;;10.90;90.70;;;;;;5071883;28;20055;-71
2021/05/09 03:21:29;;;;;;;2.28;0.80;;;10.90;90.80;;;;;;5071923;28;20040;-70
2021/05/09 03:23:56;;;;;;;1.83;0.63;;;10.90;90.80;;;;;;5052307;28;20041;-70
2021/05/09 03:26:23;;;;;;;2.20;0.95;;;10.90;90.80;;;;;;5054959;28;20090;-70
2021/05/09 03:28:49;;;;;;;2.00;1.00;;;10.90;90.80;;;;;;5072491;28;20037;-70
2021/05/09 03:31:15;;;;;;;2.92;0.98;;;10.80;90.80;;;;;;5071625;28;20051;-70
2021/05/09 03:33:42;;;;;;;2.97;0.82;;;10.80;90.80;;;;;;5053547;28;20052;-70
2021/05/09 03:36:09;;;;;;;3.50;0.70;;;10.80;90.80;;;;;;5071620;28;20052;-70
2021/05/09 03:38:36;;;;;;;1.02;0.47;;;10.70;90.80;;;;;;5073182;28;20048;-70
2021/05/09 03:41:02;;;;;;;1.50;0.60;;;10.70;90.90;;;;;;5070183;28;20048;-70
2021/05/09 03:43:29;;;;;;;1.23;0.70;;;10.70;90.90;;;;;;5071332;28;20090;-70
2021/05/09 03:45:55;;;;;;;1.80;0.63;;;10.70;90.90;;;;;;5051930;28;20115;-69
2021/05/09 03:48:22;;;;;;;1.73;0.80;;;10.70;90.90;;;;;;5070534;28;20043;-70
2021/05/09 03:50:48;;;;;;;1.55;0.82;;;10.60;90.90;;;;;;5073194;28;20044;-70
2021/05/09 03:53:15;;;;;;;2.50;0.68;;;10.70;90.90;;;;;;5073307;28;20037;-70
2021/05/09 03:55:42;;;;;;;1.60;0.80;;;10.60;90.90;;;;;;5072153;28;20040;-70
2021/05/09 03:58:08;;;;;;;3.67;0.90;;;10.60;90.90;;;;;;5073582;28;20424;-72
2021/05/09 04:00:35;;;;;;;2.17;1.02;;;10.60;90.90;;;;;;5071731;28;20048;-71
2021/05/09 04:03:01;;;;;;;3.55;0.90;;;10.60;90.90;;;;;;5072062;28;20473;-71
2021/05/09 04:05:28;;;;;;;1.73;0.80;;;10.60;91.00;;;;;;5073140;28;20051;-71
2021/05/09 04:07:55;;;;;;;1.90;0.75;;;10.60;91.00;;;;;;5072425;28;20492;-71
2021/05/09 04:10:21;;;;;;;2.30;0.95;;;10.60;91.00;;;;;;5071631;28;20094;-71
2021/05/09 04:12:50;;;;;;;2.60;1.00;;;10.60;90.90;;;;;;5071026;28;20047;-70
2021/05/09 04:15:17;;;;;;;1.13;0.73;;;10.60;90.90;;;;;;5070894;28;20052;-70
2021/05/09 04:17:44;;;;;;;2.42;0.85;;;10.70;90.90;;;;;;5072355;28;20492;-71
2021/05/09 04:20:11;;;;;;;1.40;0.82;;;10.70;90.90;;;;;;5072552;28;20040;-70
2021/05/09 04:22:38;;;;;;;1.52;0.80;;;10.60;90.90;;;;;;5051020;28;20530;-70
2021/05/09 04:25:05;;;;;;;1.83;0.95;;;10.70;90.90;;;;;;5072244;28;20066;-70
2021/05/09 04:27:31;;;;;;;2.08;0.80;;;10.70;90.90;;;;;;5071162;28;20047;-70
2021/05/09 04:29:58;;;;;;;2.67;0.80;;;10.60;90.90;;;;;;5054777;28;20511;-69
2021/05/09 04:32:24;;;;;;;1.83;0.70;;;10.70;91.00;;;;;;5070468;28;20070;-70
2021/05/09 04:34:52;;;;;;;1.80;0.70;;;10.70;90.90;;;;;;5070319;28;20094;-70
2021/05/09 04:37:18;;;;;;;1.85;0.80;;;10.70;91.00;;;;;;5072389;28;20550;-71
2021/05/09 04:39:45;;;;;;;3.83;0.70;;;10.70;90.90;;;;;;5071446;28;20045;-71
2021/05/09 04:42:11;;;;;;;1.42;0.68;;;10.70;90.90;;;;;;5071624;28;20044;-71
2021/05/09 04:44:38;;;;;;;2.45;0.80;;;10.80;91.00;;;;;;5072114;28;20095;-71
2021/05/09 04:47:04;;;;;;;1.65;0.85;;;10.80;90.90;;;;;;5052033;28;20040;-71
2021/05/09 04:49:31;;;;;;;1.20;0.70;;;10.80;90.90;;;;;;5057554;28;20041;-72
2021/05/09 04:51:58;;;;;;;1.50;0.60;;;10.80;90.90;;;;;;5070738;28;20044;-71
2021/05/09 04:54:25;;;;;;;1.27;0.60;;;10.90;90.90;;;;;;5072541;28;20119;-71
2021/05/09 04:56:52;;;;;;;1.60;0.70;;;10.90;90.90;;;;;;5072656;28;20036;-72
2021/05/09 04:59:19;;;;;;;1.60;0.70;;;10.90;90.90;;;;;;5072785;28;20065;-71
2021/05/09 05:01:46;;;;;;;2.00;0.70;;;11.00;90.90;;;;;;5070778;28;20457;-71
2021/05/09 05:04:12;;;;;;;2.08;0.93;;;11.00;90.90;;;;;;5074507;28;20055;-71
2021/05/09 05:06:39;;;;;;;1.20;0.70;;;11.10;90.90;;;;;;5070169;28;20488;-71
2021/05/09 05:09:06;;;;;;;1.83;0.70;;;11.10;90.90;;;;;;5071122;28;20044;-71
2021/05/09 05:11:32;;;;;;;2.38;0.60;;;11.20;90.90;;;;;;5073593;28;20037;-70
2021/05/09 05:13:59;;;;;;;2.53;0.88;;;11.30;90.90;;;;;;5077105;28;20506;-71
2021/05/09 05:16:26;;;;;;;1.10;0.52;;;11.40;90.80;;;;;;5061989;28;20047;-71
2021/05/09 05:18:52;;;;;;;1.60;0.63;;;11.50;90.80;;;;;;5074698;28;20040;-71
2021/05/09 05:21:19;;;;;;;2.05;0.70;;;11.60;90.70;;;;;;5074547;28;20101;-70
2021/05/09 05:23:46;;;;;;;1.48;0.70;;;11.70;90.70;;;;;;5075278;28;20492;-71
2021/05/09 05:26:13;;;;;;;1.50;0.80;;;11.80;90.60;;;;;;5074846;28;20041;-71
2021/05/09 05:28:39;;;;;;;1.48;0.63;;;11.90;90.60;;;;;;5075162;28;20048;-71
2021/05/09 05:31:06;;;;;;;1.45;0.65;;;12.00;90.50;;;;;;5075678;28;20363;-72
2021/05/09 05:33:35;;;;;;;1.70;0.70;;;12.10;90.40;;;;;;5077097;28;20044;-71
2021/05/09 05:36:05;;;;;;;1.35;0.60;;;12.30;90.40;;;;;;5075444;28;20135;-72
2021/05/09 05:38:32;;;;;;;1.70;0.70;;;12.40;90.40;;;;;;5076857;28;20467;-71
2021/05/09 05:40:59;;;;;;;2.08;0.80;;;12.50;90.30;;;;;;5076530;28;20570;-71
2021/05/09 05:43:30;;;;;;;1.88;0.60;;;12.60;90.30;;;;;;5075172;28;20032;-71
2021/05/09 05:45:58;;;;;;;1.50;0.70;;;12.60;90.20;;;;;;5073762;28;20106;-70
2021/05/09 05:48:26;;;;;;;2.05;0.82;;;12.80;90.30;;;;;;5074858;28;20049;-71
2021/05/09 05:50:53;;;;;;;2.17;1.00;;;12.90;90.20;;;;;;5073444;28;20050;-70
2021/05/09 05:53:22;;;;;;;2.70;0.80;;;12.90;90.20;;;;;;5071538;28;20068;-70
2021/05/09 05:55:49;;;;;;;2.38;1.00;;;13.00;90.10;;;;;;5075828;28;20048;-71
2021/05/09 05:58:17;;;;;;;1.67;0.88;;;13.00;90.10;;;;;;5076094;28;20055;-72
2021/05/09 06:00:45;;;;;;;1.70;0.65;;;13.10;90.10;;;;;;5075307;28;20053;-71
2021/05/09 06:03:12;;;;;;;1.85;0.80;;;13.10;90.10;;;;;;5073983;28;20037;-71
2021/05/09 06:05:38;;;;;;;1.95;1.00;;;13.20;90.20;;;;;;5074778;28;20403;-71
2021/05/09 06:08:06;;;;;;;2.47;0.98;;;13.20;90.10;;;;;;5075617;28;20066;-70
2021/05/09 06:10:32;;;;;;;1.58;0.65;;;13.40;90.10;;;;;;5075837;28;20091;-71
2021/05/09 06:12:59;;;;;;;2.40;0.70;;;13.40;90.10;;;;;;5074309;28;20036;-71
2021/05/09 06:15:25;;;;;;;1.20;0.63;;;13.60;90.00;;;;;;5056423;28;20162;-71
2021/05/09 06:17:52;;;;;;;1.50;0.60;;;13.80;89.90;;;;;;5081957;28;20071;-72
2021/05/09 06:20:19;;;;;;;1.50;0.73;;;13.90;89.70;;;;;;5057293;28;20051;-70
2021/05/09 06:22:46;;;;;;;1.88;0.70;;;14.10;89.50;;;;;;5064545;28;20565;-71
2021/05/09 06:25:14;;;;;;;2.55;0.85;;;14.20;89.30;;;;;;5065120;28;20550;-71
2021/05/09 06:27:41;;;;;;;1.80;0.65;;;14.30;89.20;;;;;;5070243;28;20047;-72
2021/05/09 06:30:08;;;;;;;1.27;0.68;;;14.40;89.20;;;;;;5071851;28;20041;-71
2021/05/09 06:32:34;;;;;;;2.55;1.10;;;14.50;89.10;;;;;;5060590;28;20095;-71
2021/05/09 06:35:01;;;;;;;1.67;0.80;;;14.50;89.10;;;;;;5056349;28;20047;-71
2021/05/09 06:37:28;;;;;;;1.98;0.90;;;14.70;89.10;;;;;;5063060;28;20040;-71
2021/05/09 06:39:54;;;;;;;2.42;0.68;;;14.80;88.80;;;;;;5040269;28;20102;-71
2021/05/09 06:42:21;;;;;;;2.72;0.85;;;15.00;88.60;;;;;;5070477;28;20515;-70
2021/05/09 06:44:54;;;;;;;1.63;0.60;;;15.20;88.40;;;;;;5073023;28;20036;-71
2021/05/09 06:47:21;;;;;;;1.95;0.90;;;15.40;88.20;;;;;;5073540;28;20047;-71
2021/05/09 06:49:48;;;;;;;2.55;0.80;;;15.60;88.00;;;;;;5072708;28;20059;-71
2021/05/09 06:52:15;;;;;;;2.90;1.00;;;15.80;87.80;;;;;;5071588;28;20041;-70
2021/05/09 06:54:41;;;;;;;2.38;1.20;;;15.90;87.60;;;;;;5073925;28;20037;-73
2021/05/09 06:57:09;;;;;;;3.42;1.17;;;16.10;87.50;;;;;;5073060;28;20523;-73
2021/05/09 06:59:35;;;;;;;2.72;1.20;;;16.20;87.20;;;;;;5072527;28;20049;-72
2021/05/09 07:02:02;;;;;;;2.30;1.30;;;16.30;87.60;;;;;;5072130;28;20186;-71
2021/05/09 07:04:29;;;;;;;2.42;1.25;;;16.40;86.80;;;;;;5072677;28;20041;-71
2021/05/09 07:06:56;;;;;;;2.47;1.05;;;16.50;86.60;;;;;;5072985;28;20072;-72
2021/05/09 07:09:22;;;;;;;1.95;1.00;;;16.50;87.10;;;;;;5071615;28;20024;-71
2021/05/09 07:11:49;;;;;;;2.88;0.95;;;16.60;86.50;;;;;;5071669;28;20063;-72
2021/05/09 07:14:15;;;;;;;2.53;0.90;;;16.60;86.40;;;;;;5070615;28;20472;-71
2021/05/09 07:16:42;;;;;;;2.00;1.05;;;16.70;86.30;;;;;;5073305;28;20037;-71
2021/05/09 07:19:10;;;;;;;1.75;1.00;;;16.80;86.10;;;;;;5072693;28;20045;-71
2021/05/09 07:21:41;;;;;;;2.75;1.10;;;16.90;85.90;;;;;;5071686;28;20491;-71
2021/05/09 07:24:08;;;;;;;3.25;1.10;;;17.00;85.70;;;;;;5051592;28;20067;-72
2021/05/09 07:26:35;;;;;;;2.45;1.05;;;17.10;85.50;;;;;;5072667;28;20036;-72
2021/05/09 07:29:03;;;;;;;2.40;1.20;;;17.20;85.40;;;;;;5072626;28;20114;-71
2021/05/09 07:31:31;;;;;;;3.40;1.20;;;17.30;85.10;;;;;;5054585;28;20047;-71
2021/05/09 07:34:00;;;;;;;2.70;1.40;;;17.50;85.00;;;;;;5072515;28;20079;-72
2021/05/09 07:36:27;;;;;;;1.95;1.13;;;17.70;84.10;;;;;;5062776;28;20770;-70
2021/05/09 07:38:53;;;;;;;2.72;1.08;;;17.90;84.10;;;;;;5072931;28;20043;-71
2021/05/09 07:41:20;;;;;;;1.58;0.85;;;18.00;83.90;;;;;;5071241;28;20060;-71
2021/05/09 07:43:47;;;;;;;2.70;1.33;;;18.10;83.80;;;;;;5049865;28;20043;-71
2021/05/09 07:46:14;;;;;;;2.17;1.15;;;18.10;83.50;;;;;;5071714;28;20052;-71
2021/05/09 07:48:41;;;;;;;3.15;1.35;;;18.10;83.30;;;;;;5071680;28;20090;-71
2021/05/09 07:51:07;;;;;;;2.58;1.00;;;18.10;83.20;;;;;;5071286;28;20093;-71
2021/05/09 07:53:34;;;;;;;1.88;1.10;;;18.20;83.30;;;;;;5071265;28;20044;-71
2021/05/09 07:56:00;;;;;;;3.53;1.30;;;18.20;83.20;;;;;;5070956;28;20048;-71
2021/05/09 07:58:27;;;;;;;1.95;1.00;;;18.30;82.90;;;;;;5064687;28;20515;-71
2021/05/09 08:00:54;;;;;;;2.47;1.17;;;18.60;82.90;;;;;;5052923;28;20056;-71
2021/05/09 08:03:20;;;;;;;2.80;0.98;;;18.80;82.30;;;;;;5072642;28;20037;-71
2021/05/09 08:05:47;;;;;;;1.70;0.90;;;19.10;82.20;;;;;;5072416;28;20070;-71
2021/05/09 08:08:14;;;;;;;1.67;0.80;;;19.30;81.80;;;;;;5070644;28;20551;-72
2021/05/09 08:10:42;;;;;;;2.30;1.00;;;19.40;81.60;;;;;;5070621;28;20066;-71
2021/05/09 08:13:14;;;;;;;2.33;1.20;;;19.50;81.30;;;;;;5070369;28;20048;-71
2021/05/09 08:15:41;;;;;;;1.35;0.90;;;19.60;81.00;;;;;;5034610;28;20040;-71
2021/05/09 08:18:08;;;;;;;2.50;1.40;;;19.80;80.90;;;;;;5071100;28;20048;-71
2021/05/09 08:20:35;;;;;;;1.70;0.93;;;19.90;80.30;;;;;;5070742;28;20067;-72
2021/05/09 08:23:01;;;;;;;2.10;0.88;;;20.10;80.00;;;;;;5070758;28;20118;-71
2021/05/09 08:25:31;;;;;;;2.05;1.00;;;20.30;79.80;;;;;;5071721;28;20044;-72
2021/05/09 08:27:58;;;;;;;2.58;1.10;;;20.40;79.10;;;;;;5070432;28;20045;-72
2021/05/09 08:30:25;;;;;;;3.22;0.82;;;20.50;78.00;;;;;;5071706;28;20040;-72
2021/05/09 08:32:58;;;;;;;1.98;1.05;;;20.40;77.50;;;;;;5070081;28;20055;-72
2021/05/09 08:35:25;;;;;;;2.53;0.90;;;20.40;77.80;;;;;;5071227;28;20513;-72
2021/05/09 08:37:52;;;;;;;1.38;0.80;;;20.40;77.80;;;;;;5070490;28;20093;-72
2021/05/09 08:40:18;;;;;;;2.05;0.90;;;20.50;77.90;;;;;;5050543;28;20057;-72
2021/05/09 08:42:48;;;;;;;2.00;1.00;;;20.60;77.30;;;;;;5071455;28;20492;-72
2021/05/09 08:45:16;;;;;;;2.75;0.98;;;20.70;77.10;;;;;;5070780;28;20032;-72
2021/05/09 08:47:43;;;;;;;2.40;0.98;;;20.90;76.80;;;;;;5071003;28;20082;-72
2021/05/09 08:50:18;;;;;;;3.28;1.20;;;21.00;76.40;;;;;;5071756;28;20037;-72
2021/05/09 08:52:48;;;;;;;2.38;0.80;;;21.10;76.00;;;;;;5071152;28;20040;-72
2021/05/09 08:55:25;;;;;;;1.95;0.70;;;21.10;76.20;;;;;;5070357;28;20047;-73
2021/05/09 08:57:58;;;;;;;2.35;0.90;;;21.20;76.20;;;;;;5069836;28;20040;-73
2021/05/09 09:00:26;;;;;;;2.95;0.80;;;21.30;75.40;;;;;;5053463;28;20563;-74
2021/05/09 09:02:55;;;;;;;3.90;1.17;;;21.30;75.50;;;;;;5070432;28;20551;-73
2021/05/09 09:05:40;;;;;;;3.40;1.48;;;21.30;75.00;;;;;;5054036;28;20063;-74
2021/05/09 09:08:09;;;;;;;1.50;0.70;;;21.40;74.80;;;;;;5071343;28;20128;-73
2021/05/09 09:10:45;;;;;;;2.67;1.00;;;21.40;75.30;;;;;;5071735;28;20110;-73
2021/05/09 09:13:29;;;;;;;2.28;1.10;;;21.50;75.40;;;;;;5071118;28;20040;-73
2021/05/09 09:16:03;;;;;;;2.67;0.90;;;21.60;75.00;;;;;;5071417;28;20041;-71
2021/05/09 09:18:42;;;;;;;2.58;1.00;;;21.70;75.20;;;;;;5078888;28;20472;-71
2021/05/09 09:21:30;;;;;;;1.77;0.90;;;21.80;74.50;;;;;;5070200;28;20362;-70
2021/05/09 09:24:10;;;;;;;2.53;0.98;;;21.80;74.50;;;;;;5093100;28;20056;-71
2021/05/09 09:26:48;;;;;;;3.83;1.08;;;21.70;75.00;;;;;;5069917;28;20043;-70
2021/05/09 09:29:31;;;;;;;2.35;0.90;;;21.70;75.00;;;;;;5062546;28;20060;-71
2021/05/09 09:32:03;;;;;;;1.85;0.80;;;21.80;75.00;;;;;;5079430;28;20048;-71
2021/05/09 09:34:46;;;;;;;1.13;0.57;;;21.90;75.20;;;;;;5079825;28;20408;-71
2021/05/09 09:37:14;;;;;;;2.17;1.00;;;22.00;74.60;;;;;;5070533;28;20037;-71
2021/05/09 09:40:00;;;;;;;1.50;0.65;;;22.10;74.50;;;;;;5076232;28;20040;-70
2021/05/09 09:42:37;;;;;;;1.98;0.85;;;22.30;74.30;;;;;;5072520;28;20062;-71
2021/05/09 09:45:17;;;;;;;2.10;0.90;;;22.40;73.90;;;;;;5071871;28;20036;-71
2021/05/09 09:48:00;;;;;;;2.55;1.05;;;22.40;72.90;;;;;;5075969;28;20508;-71
2021/05/09 09:50:49;;;;;;;1.90;1.10;;;22.30;72.80;;;;;;5069022;28;20038;-70
2021/05/09 09:53:26;;;;;;;2.03;1.00;;;22.10;73.30;;;;;;5080736;28;20048;-71
2021/05/09 09:56:11;;;;;;;2.17;1.00;;;22.10;72.90;;;;;;5076425;28;20032;-71
2021/05/09 09:58:51;;;;;;;2.30;0.98;;;22.10;72.70;;;;;;5074485;28;20495;-71
2021/05/09 10:01:25;;;;;;;1.80;1.00;;;22.00;72.90;;;;;;5073822;28;20094;-70
2021/05/09 10:03:53;;;;;;;3.28;0.70;;;21.90;72.80;;;;;;5075065;28;20036;-71
2021/05/09 10:06:21;;;;;;;3.05;1.10;;;21.80;73.50;;;;;;5075219;28;20067;-70
2021/05/09 10:08:50;;;;;;;1.15;0.70;;;21.80;72.80;;;;;;5073730;28;20519;-71
2021/05/09 10:11:17;;;;;;;1.55;0.80;;;21.80;72.80;;;;;;5078277;28;20037;-71
2021/05/09 10:13:46;;;;;;;1.60;0.80;;;21.80;72.40;;;;;;5082081;28;20109;-71
2021/05/09 10:16:13;;;;;;;1.85;0.70;;;21.90;72.00;;;;;;5078695;28;20052;-71
2021/05/09 10:18:45;;;;;;;2.03;0.80;;;22.10;71.70;;;;;;5073778;28;20044;-70
2021/05/09 10:21:12;;;;;;;1.40;0.73;;;22.30;71.00;;;;;;5078130;28;20041;-72
2021/05/09 10:24:08;;;;;;;1.40;0.52;;;22.40;70.80;;;;;;5074790;28;20419;-72
2021/05/09 10:27:07;;;;;;;1.00;0.52;;;22.50;70.30;;;;;;5089800;28;20060;-72
2021/05/09 10:29:41;;;;;;;1.13;0.50;;;22.70;69.90;;;;;;5088102;28;20040;-72
2021/05/09 10:32:18;;;;;;;2.15;0.80;;;22.90;69.50;;;;;;5072720;28;20048;-73
2021/05/09 10:37:35;;;;;;;1.85;0.70;;;23.10;68.50;;;;;;5073795;28;20036;-72
2021/05/09 10:40:35;;;;;;;1.67;0.65;;;23.10;68.20;;;;;;5072217;28;20396;-75
2021/05/09 10:43:04;;;;;;;2.80;0.70;;;23.20;68.30;;;;;;5066697;28;20048;-72
2021/05/09 10:45:39;;;;;;;1.95;0.65;;;23.30;67.90;;;;;;5071565;28;20040;-72
2021/05/09 10:48:35;;;;;;;1.63;0.70;;;23.60;67.40;;;;;;5060779;28;20075;-72
2021/05/09 10:51:02;;;;;;;1.45;0.77;;;24.10;66.60;;;;;;5072057;28;20056;-71
2021/05/09 10:53:40;;;;;;;1.63;0.85;;;24.10;66.20;;;;;;5074328;28;20149;-71
2021/05/09 10:56:10;;;;;;;1.80;0.70;;;24.20;66.00;;;;;;5073805;28;20557;-71
2021/05/09 10:58:47;;;;;;;0.85;0.50;;;24.20;66.20;;;;;;5074384;28;20044;-71
2021/05/09 11:01:21;;;;;;;1.52;0.70;;;24.10;66.20;;;;;;5073384;28;20052;-71
2021/05/09 11:03:55;;;;;;;1.17;0.50;;;23.90;66.50;;;;;;5073887;28;20045;-71
2021/05/09 11:06:38;;;;;;;0.85;0.57;;;23.80;66.60;;;;;;5073064;28;20472;-71
2021/05/09 11:09:15;;;;;;;1.45;0.65;;;23.70;66.80;;;;;;5072251;28;20044;-71
2021/05/09 11:11:42;;;;;;;1.58;0.60;;;23.50;67.00;;;;;;5073367;28;20064;-71
2021/05/09 11:14:10;;;;;;;0.80;0.50;;;23.30;67.30;;;;;;5072395;28;20048;-73
2021/05/09 11:16:37;;;;;;;2.55;0.70;;;23.10;67.20;;;;;;5073335;28;20054;-71
2021/05/09 11:19:12;;;;;;;1.63;0.77;;;23.00;67.30;;;;;;5072094;28;20156;-71
2021/05/09 11:21:44;;;;;;;1.35;0.77;;;23.00;67.30;;;;;;5073732;28;20036;-71
2021/05/09 11:24:17;;;;;;;;;;;22.90;67.20;;;;;;5073524;28;20458;-71
2021/05/09 11:26:47;;;;;;;1.52;0.60;;;22.90;67.60;;;;;;5073335;28;20364;-72
2021/05/09 11:29:16;;;;;;;1.17;0.60;;;22.80;67.30;;;;;;5072645;28;20033;-71
2021/05/09 11:32:13;;;;;;;1.33;0.60;;;22.80;67.20;;;;;;5070013;28;20033;-71
2021/05/09 11:34:54;;;;;;;4.63;0.82;;;22.80;66.80;;;;;;5060567;28;20056;-72
2021/05/09 11:37:29;;;;;;;2.13;0.60;;;22.90;66.80;;;;;;5073601;28;20028;-72
2021/05/09 11:39:59;;;;;;;1.48;0.57;;;23.00;66.60;;;;;;5073710;28;20058;-72
2021/05/09 11:42:29;;;;;;;1.73;0.47;;;23.10;66.40;;;;;;5073014;28;20052;-72
2021/05/09 11:44:59;;;;;;;1.45;0.43;;;23.20;66.40;;;;;;5071513;28;20400;-72
2021/05/09 11:47:29;;;;;;;1.42;0.70;;;23.20;66.20;;;;;;5073578;28;20058;-73
2021/05/09 11:50:04;;;;;;;1.77;0.67;;;23.20;66.10;;;;;;5073019;28;20538;-72
2021/05/09 11:52:36;;;;;;;1.58;0.70;;;23.20;66.20;;;;;;5055791;28;20040;-72
2021/05/09 11:55:09;;;;;;;1.45;0.70;;;23.20;66.20;;;;;;5072459;28;20055;-72
2021/05/09 11:57:37;;;;;;;2.03;0.80;;;23.10;66.20;;;;;;5071819;28;20531;-72
2021/05/09 12:00:05;;;;;;;0.88;0.50;;;23.00;66.50;;;;;;5071841;28;20053;-73
2021/05/09 12:02:35;;;;;;;1.00;0.50;;;22.90;66.50;;;;;;5072105;28;20053;-72
2021/05/09 12:05:07;;;;;;;1.90;0.80;;;22.80;66.60;;;;;;5076249;28;20044;-72
2021/05/09 12:07:45;;;;;;;2.25;0.73;;;22.80;66.70;;;;;;5071906;28;20048;-73
2021/05/09 12:10:15;;;;;;;1.92;0.95;;;22.60;66.90;;;;;;5072924;28;20037;-73
2021/05/09 12:12:43;;;;;;;1.70;0.70;;;22.50;67.00;;;;;;5051888;28;20083;-72
2021/05/09 12:15:15;;;;;;;1.33;0.80;;;22.40;67.20;;;;;;5072229;28;20048;-73
2021/05/09 12:17:56;;;;;;;2.72;0.65;;;22.40;67.40;;;;;;5053982;28;20075;-73
2021/05/09 12:20:43;;;;;;;1.67;0.60;;;22.40;67.40;;;;;;5059974;28;20139;-73
2021/05/09 12:23:11;;;;;;;1.23;0.50;;;22.30;67.60;;;;;;5070867;28;20123;-73
2021/05/09 12:25:46;;;;;;;1.40;0.60;;;22.30;67.70;;;;;;5070795;28;20067;-72
2021/05/09 12:28:32;;;;;;;1.50;0.80;;;22.30;67.70;;;;;;5071596;28;20037;-71
2021/05/09 12:31:14;;;;;;;2.13;0.73;;;22.30;67.60;;;;;;5070807;28;20060;-71
2021/05/09 12:33:41;;;;;;;1.40;0.70;;;22.30;67.60;;;;;;5071715;28;20484;-71
2021/05/09 12:36:19;;;;;;;1.45;0.70;;;22.30;67.60;;;;;;5072075;28;20115;-71
2021/05/09 12:38:47;;;;;;;1.38;0.65;;;22.40;67.50;;;;;;5056858;28;20049;-72
2021/05/09 12:41:17;;;;;;;1.65;0.98;;;22.50;67.60;;;;;;5069577;28;20110;-72
2021/05/09 12:43:51;;;;;;;2.13;0.70;;;22.50;67.50;;;;;;5071488;28;20028;-74
2021/05/09 12:46:38;;;;;;;0.95;0.50;;;22.60;67.50;;;;;;5070811;28;20503;-74
2021/05/09 12:49:16;;;;;;;1.88;0.80;;;22.50;67.40;;;;;;5054429;28;20393;-72
2021/05/09 12:52:05;;;;;;;1.23;0.68;;;22.50;67.60;;;;;;5068049;28;20048;-73
2021/05/09 12:54:51;;;;;;;0.95;0.55;;;22.60;67.70;;;;;;5077707;28;20075;-73
2021/05/09 12:57:25;;;;;;;2.75;0.50;;;22.60;67.70;;;;;;5057758;28;20049;-74
2021/05/09 12:59:53;;;;;;;1.23;0.55;;;22.50;68.00;;;;;;5069622;28;20049;-74
2021/05/09 13:02:23;;;;;;;2.05;0.73;;;22.50;68.60;;;;;;5065062;28;20492;-74
2021/05/09 13:04:58;;;;;;;1.60;0.75;;;22.50;68.00;;;;;;5061782;28;20123;-74